createdAt,value
2022-12-15T00:01:52.899Z,14.02
2022-12-15T00:04:12.788Z,14.52
2022-12-15T00:06:33.201Z,14.32
2022-12-15T00:08:53.056Z,14.20
2022-12-15T00:11:13.422Z,14.07
2022-12-15T00:13:33.419Z,13.95
2022-12-15T00:15:53.266Z,13.52
2022-12-15T00:18:13.355Z,13.80
2022-12-15T00:20:33.710Z,13.77
2022-12-15T00:22:53.548Z,14.50
2022-12-15T00:25:13.290Z,13.80
2022-12-15T00:27:33.057Z,14.65
2022-12-15T00:29:52.955Z,16.10
2022-12-15T00:32:12.860Z,16.05
2022-12-15T00:34:32.551Z,15.50
2022-12-15T00:36:52.391Z,13.73
2022-12-15T00:38:53.852Z,13.43
2022-12-15T00:40:59.068Z,14.30
2022-12-15T00:43:00.846Z,13.30
2022-12-15T00:45:02.373Z,14.05
2022-12-15T00:47:05.153Z,13.80
2022-12-15T00:49:26.630Z,14.10
2022-12-15T00:51:46.899Z,14.25
2022-12-15T00:54:07.079Z,13.02
2022-12-15T00:56:27.900Z,14.40
2022-12-15T00:58:47.808Z,13.70
2022-12-15T01:01:07.655Z,15.23
2022-12-15T01:03:42.264Z,15.85
2022-12-15T01:06:02.530Z,15.95
2022-12-15T01:08:22.500Z,15.40
2022-12-15T01:10:42.414Z,15.27
2022-12-15T01:13:03.271Z,14.50
2022-12-15T01:15:23.694Z,14.73
2022-12-15T01:17:44.048Z,14.20
2022-12-15T01:20:03.821Z,13.57
2022-12-15T01:22:06.605Z,13.27
2022-12-15T01:24:08.341Z,14.50
2022-12-15T01:26:09.880Z,13.00
2022-12-15T01:28:11.315Z,14.05
2022-12-15T01:30:16.462Z,14.10
2022-12-15T01:32:17.898Z,13.30
2022-12-15T01:34:20.315Z,13.73
2022-12-15T01:36:21.820Z,13.25
2022-12-15T01:38:23.332Z,13.40
2022-12-15T01:40:43.281Z,13.75
2022-12-15T01:42:44.851Z,14.27
2022-12-15T01:44:53.051Z,13.13
2022-12-15T01:46:56.342Z,14.38
2022-12-15T01:49:09.687Z,13.55
2022-12-15T01:51:20.333Z,14.80
2022-12-15T01:53:21.835Z,13.50
2022-12-15T01:55:28.224Z,13.75
2022-12-15T01:57:32.711Z,13.50
2022-12-15T01:59:39.136Z,14.25
2022-12-15T02:01:41.155Z,13.98
2022-12-15T02:03:44.123Z,13.25
2022-12-15T02:05:46.995Z,13.35
2022-12-15T02:07:48.451Z,13.73
2022-12-15T02:09:55.148Z,13.25
2022-12-15T02:12:08.853Z,13.50
2022-12-15T02:14:12.895Z,12.88
2022-12-15T02:16:29.511Z,13.63
2022-12-15T02:18:46.064Z,13.52
2022-12-15T02:21:00.910Z,12.85
2022-12-15T02:23:13.447Z,14.35
2022-12-15T02:25:39.434Z,12.88
2022-12-15T02:28:02.062Z,13.45
2022-12-15T02:30:36.099Z,13.88
2022-12-15T02:32:46.050Z,13.40
2022-12-15T02:35:05.767Z,14.10
2022-12-15T02:37:07.143Z,15.05
2022-12-15T02:39:11.963Z,14.50
2022-12-15T02:41:43.753Z,13.50
2022-12-15T02:43:45.231Z,13.57
2022-12-15T02:46:21.580Z,14.48
2022-12-15T02:48:47.186Z,14.00
2022-12-15T02:50:59.165Z,12.88
2022-12-15T02:53:19.439Z,13.30
2022-12-15T02:55:23.924Z,13.50
2022-12-15T02:57:37.528Z,12.95
2022-12-15T02:59:55.516Z,12.98
2022-12-15T03:02:02.477Z,13.38
2022-12-15T03:04:06.917Z,13.55
2022-12-15T03:06:09.186Z,13.25
2022-12-15T03:08:10.641Z,13.77
2022-12-15T03:10:14.118Z,13.93
2022-12-15T03:12:15.581Z,14.05
2022-12-15T03:14:17.189Z,13.43
2022-12-15T03:16:18.688Z,14.15
2022-12-15T03:18:20.577Z,13.93
2022-12-15T03:20:22.088Z,12.27
2022-12-15T03:22:23.537Z,12.35
2022-12-15T03:24:25.063Z,12.98
2022-12-15T03:26:26.511Z,13.57
2022-12-15T03:28:28.710Z,13.20
2022-12-15T03:30:30.171Z,13.60
2022-12-15T03:32:31.788Z,12.95
2022-12-15T03:34:33.267Z,12.65
2022-12-15T03:36:34.732Z,12.88
2022-12-15T03:38:36.191Z,13.75
2022-12-15T03:40:37.656Z,12.93
2022-12-15T03:42:51.472Z,13.35
2022-12-15T03:44:52.907Z,13.48
2022-12-15T03:47:01.344Z,12.68
2022-12-15T03:49:04.967Z,12.82
2022-12-15T03:51:06.777Z,13.07
2022-12-15T03:53:08.217Z,12.98
2022-12-15T03:55:11.103Z,12.75
2022-12-15T03:57:12.525Z,13.38
2022-12-15T03:59:13.957Z,13.18
2022-12-15T04:01:21.818Z,12.88
2022-12-15T04:03:23.530Z,9.82
2022-12-15T04:05:30.961Z,14.25
2022-12-15T04:07:32.473Z,12.55
2022-12-15T04:09:33.904Z,12.90
2022-12-15T04:11:35.447Z,13.23
2022-12-15T04:13:36.880Z,11.43
2022-12-15T04:15:39.591Z,12.35
2022-12-15T04:17:41.781Z,12.32
2022-12-15T04:20:01.698Z,12.38
2022-12-15T04:22:03.685Z,12.88
2022-12-15T04:24:24.355Z,13.18
2022-12-15T04:26:44.268Z,13.02
2022-12-15T04:29:04.213Z,12.27
2022-12-15T04:31:33.774Z,13.27
2022-12-15T04:33:59.519Z,13.38
2022-12-15T04:36:19.890Z,12.43
2022-12-15T04:38:50.049Z,12.02
2022-12-15T04:41:11.067Z,13.00
2022-12-15T04:43:30.964Z,12.48
2022-12-15T04:45:51.723Z,12.43
2022-12-15T04:48:11.850Z,13.18
2022-12-15T04:50:32.204Z,12.45
2022-12-15T04:52:51.975Z,12.18
2022-12-15T04:55:11.863Z,12.80
2022-12-15T04:57:31.625Z,12.93
2022-12-15T04:59:51.495Z,11.35
2022-12-15T05:02:11.933Z,12.55
2022-12-15T05:04:32.145Z,12.25
2022-12-15T05:06:52.262Z,12.05
2022-12-15T05:09:12.084Z,13.52
2022-12-15T05:11:32.232Z,11.88
2022-12-15T05:13:51.944Z,12.60
2022-12-15T05:16:12.652Z,11.77
2022-12-15T05:18:32.785Z,11.95
2022-12-15T05:20:52.864Z,11.65
2022-12-15T05:23:13.806Z,12.98
2022-12-15T05:25:33.770Z,12.20
2022-12-15T05:27:53.645Z,13.60
2022-12-15T05:30:13.712Z,12.90
2022-12-15T05:32:15.204Z,13.38
2022-12-15T05:34:16.695Z,13.82
2022-12-15T05:36:18.130Z,14.38
2022-12-15T05:38:19.646Z,13.55
2022-12-15T05:40:21.094Z,13.10
2022-12-15T05:42:22.652Z,12.68
2022-12-15T05:44:25.478Z,14.15
2022-12-15T05:46:27.160Z,13.88
2022-12-15T05:48:28.683Z,12.90
2022-12-15T05:50:30.135Z,13.00
2022-12-15T05:52:31.559Z,13.38
2022-12-15T05:54:33.126Z,13.02
2022-12-15T05:56:35.159Z,13.10
2022-12-15T05:58:41.497Z,13.45
2022-12-15T06:00:46.455Z,11.98
2022-12-15T06:02:48.253Z,13.10
2022-12-15T06:04:51.679Z,14.27
2022-12-15T06:06:53.243Z,13.38
2022-12-15T06:08:55.178Z,13.30
2022-12-15T06:10:56.964Z,13.63
2022-12-15T06:12:58.478Z,13.93
2022-12-15T06:14:59.913Z,13.50
2022-12-15T06:17:01.474Z,11.90
2022-12-15T06:19:03.459Z,13.48
2022-12-15T06:21:07.512Z,13.50
2022-12-15T06:23:09.091Z,13.27
2022-12-15T06:25:10.618Z,12.52
2022-12-15T06:27:12.128Z,13.35
2022-12-15T06:29:14.056Z,13.98
2022-12-15T06:31:17.770Z,13.68
2022-12-15T06:33:21.041Z,13.48
2022-12-15T06:35:22.491Z,12.73
2022-12-15T06:37:23.948Z,13.05
2022-12-15T06:39:25.435Z,13.65
2022-12-15T06:41:29.615Z,13.07
2022-12-15T06:43:33.370Z,12.95
2022-12-15T06:45:35.793Z,13.40
2022-12-15T06:47:37.256Z,13.18
2022-12-15T06:49:38.689Z,13.05
2022-12-15T06:51:41.387Z,12.85
2022-12-15T06:53:48.998Z,12.70
2022-12-15T06:55:50.855Z,9.30
2022-12-15T06:57:52.318Z,12.85
2022-12-15T06:59:53.837Z,12.32
2022-12-15T07:01:55.455Z,12.32
2022-12-15T07:03:59.876Z,12.75
2022-12-15T07:06:07.533Z,13.30
2022-12-15T07:08:10.995Z,12.40
2022-12-15T07:10:12.507Z,11.98
2022-12-15T07:12:13.954Z,13.10
2022-12-15T07:14:15.838Z,11.82
2022-12-15T07:16:17.464Z,12.93
2022-12-15T07:18:19.096Z,11.90
2022-12-15T07:20:27.016Z,12.05
2022-12-15T07:22:30.150Z,12.70
2022-12-15T07:24:31.643Z,12.18
2022-12-15T07:26:34.078Z,11.50
2022-12-15T07:28:36.595Z,12.63
2022-12-15T07:30:39.179Z,12.25
2022-12-15T07:32:41.480Z,12.52
2022-12-15T07:34:42.911Z,12.00
2022-12-15T07:36:50.008Z,11.82
2022-12-15T07:38:58.912Z,12.40
2022-12-15T07:41:02.747Z,11.43
2022-12-15T07:43:04.184Z,13.18
2022-12-15T07:45:07.425Z,12.95
2022-12-15T07:47:08.864Z,12.57
2022-12-15T07:49:10.357Z,11.95
2022-12-15T07:51:19.010Z,11.60
2022-12-15T07:53:20.934Z,12.07
2022-12-15T07:55:43.359Z,12.85
2022-12-15T07:57:43.867Z,11.63
2022-12-15T07:59:46.291Z,12.38
2022-12-15T08:01:47.958Z,12.25
2022-12-15T08:03:49.800Z,12.10
2022-12-15T08:05:51.401Z,12.07
2022-12-15T08:07:52.867Z,11.13
2022-12-15T08:09:54.307Z,11.70
2022-12-15T08:11:55.810Z,11.90
2022-12-15T08:14:07.908Z,12.77
2022-12-15T08:16:13.530Z,11.65
2022-12-15T08:18:15.018Z,12.85
2022-12-15T08:20:16.517Z,11.80
2022-12-15T08:22:17.957Z,11.68
2022-12-15T08:24:22.514Z,12.48
2022-12-15T08:26:30.073Z,11.80
2022-12-15T08:28:33.071Z,12.27
2022-12-15T08:30:35.014Z,12.38
2022-12-15T08:32:36.498Z,11.82
2022-12-15T08:34:38.820Z,11.50
2022-12-15T08:36:40.315Z,11.25
2022-12-15T08:38:43.216Z,12.10
2022-12-15T08:40:44.675Z,11.88
2022-12-15T08:42:46.179Z,12.23
2022-12-15T08:44:51.176Z,12.43
2022-12-15T08:46:52.655Z,12.00
2022-12-15T08:48:54.613Z,11.65
2022-12-15T08:50:57.209Z,11.98
2022-12-15T08:53:29.153Z,11.98
2022-12-15T08:55:22.516Z,11.77
2022-12-15T08:57:24.140Z,12.35
2022-12-15T08:59:25.745Z,12.25
2022-12-15T09:01:29.404Z,11.57
2022-12-15T09:03:31.429Z,12.07
2022-12-15T09:05:37.299Z,11.55
2022-12-15T09:07:38.727Z,11.48
2022-12-15T09:09:40.179Z,11.45
2022-12-15T09:11:41.663Z,11.70
2022-12-15T09:13:43.102Z,12.15
2022-12-15T09:16:08.810Z,11.65
2022-12-15T09:18:07.114Z,11.05
2022-12-15T09:20:09.350Z,10.80
2022-12-15T09:22:10.822Z,10.48
2022-12-15T09:24:22.161Z,11.27
2022-12-15T09:26:30.727Z,10.57
2022-12-15T09:28:32.616Z,11.40
2022-12-15T09:30:34.141Z,10.98
2022-12-15T09:32:35.678Z,11.60
2022-12-15T09:34:37.177Z,10.10
2022-12-15T09:36:38.672Z,10.32
2022-12-15T09:38:42.099Z,10.60
2022-12-15T09:40:43.611Z,9.68
2022-12-15T09:43:04.843Z,10.30
2022-12-15T09:45:22.275Z,11.05
2022-12-15T09:47:57.204Z,10.00
2022-12-15T09:50:03.369Z,10.18
2022-12-15T09:52:11.615Z,9.88
2022-12-15T09:54:13.247Z,10.35
2022-12-15T09:56:20.853Z,10.20
2022-12-15T09:58:51.284Z,9.82
2022-12-15T10:01:02.440Z,9.18
2022-12-15T10:03:22.989Z,8.82
2022-12-15T10:05:57.357Z,10.40
2022-12-15T10:07:51.691Z,9.25
2022-12-15T10:09:53.298Z,9.52
2022-12-15T10:12:03.328Z,10.30
2022-12-15T10:14:10.907Z,9.35
2022-12-15T10:16:48.131Z,9.23
2022-12-15T10:21:26.234Z,10.45
2022-12-15T10:23:28.040Z,9.35
2022-12-15T10:25:31.729Z,9.20
2022-12-15T10:27:46.457Z,9.68
2022-12-15T10:30:02.823Z,10.18
2022-12-15T10:32:14.792Z,9.63
2022-12-15T10:34:25.197Z,9.20
2022-12-15T10:36:26.815Z,8.85
2022-12-15T10:38:34.372Z,9.95
2022-12-15T10:40:42.015Z,9.25
2022-12-15T10:42:50.961Z,9.00
2022-12-15T10:44:59.446Z,9.13
2022-12-15T10:47:16.807Z,8.70
2022-12-15T10:49:24.088Z,9.63
2022-12-15T10:51:47.050Z,9.07
2022-12-15T10:53:50.734Z,9.25
2022-12-15T10:56:00.229Z,9.07
2022-12-15T10:58:04.291Z,10.45
2022-12-15T11:00:14.880Z,9.63
2022-12-15T11:02:25.216Z,10.20
2022-12-15T11:04:32.453Z,7.95
2022-12-15T11:06:36.847Z,8.05
2022-12-15T11:08:38.430Z,7.68
2022-12-15T11:11:16.860Z,7.63
2022-12-15T11:15:21.096Z,7.78
2022-12-15T11:17:23.758Z,7.82
2022-12-15T11:19:46.390Z,7.80
2022-12-15T11:21:52.531Z,7.07
2022-12-15T11:24:33.978Z,8.55
2022-12-15T11:26:56.926Z,7.10
2022-12-15T11:29:18.671Z,7.40
2022-12-15T11:31:26.841Z,6.95
2022-12-15T11:33:28.905Z,7.13
2022-12-15T11:36:01.246Z,7.57
2022-12-15T11:38:13.026Z,7.45
2022-12-15T11:40:36.353Z,7.68
2022-12-15T11:42:45.270Z,7.22
2022-12-15T11:44:58.601Z,7.10
2022-12-15T11:47:13.243Z,6.78
2022-12-15T11:49:45.230Z,7.38
2022-12-15T11:52:30.987Z,6.45
2022-12-15T11:54:55.571Z,6.82
2022-12-15T11:57:07.593Z,7.30
2022-12-15T11:59:24.097Z,6.88
2022-12-15T12:01:52.586Z,6.90
2022-12-15T12:04:29.159Z,6.63
2022-12-15T12:06:38.249Z,7.55
2022-12-15T12:09:30.172Z,7.25
2022-12-15T12:11:48.803Z,6.57
2022-12-15T12:13:54.929Z,7.25
2022-12-15T12:16:22.484Z,7.28
2022-12-15T12:18:29.638Z,7.47
2022-12-15T12:20:50.253Z,7.38
2022-12-15T12:23:05.809Z,6.80
2022-12-15T12:25:23.103Z,6.93
2022-12-15T12:27:24.503Z,7.13
2022-12-15T12:29:34.638Z,7.70
2022-12-15T12:32:00.595Z,7.53
2022-12-15T12:34:37.694Z,7.60
2022-12-15T12:36:41.615Z,7.32
2022-12-15T12:38:50.405Z,7.70
2022-12-15T12:40:52.608Z,7.93
2022-12-15T12:42:56.352Z,7.57
2022-12-15T12:44:57.894Z,8.40
2022-12-15T12:47:13.371Z,7.70
2022-12-15T12:49:36.830Z,7.82
2022-12-15T12:51:41.289Z,7.95
2022-12-15T12:53:42.851Z,8.35
2022-12-15T12:55:44.338Z,8.18
2022-12-15T12:57:47.435Z,7.53
2022-12-15T13:00:03.051Z,8.15
2022-12-15T13:02:25.901Z,7.63
2022-12-15T13:04:30.498Z,7.75
2022-12-15T13:06:35.060Z,7.63
2022-12-15T13:08:51.430Z,8.07
2022-12-15T13:10:54.368Z,7.25
2022-12-15T13:13:00.840Z,8.75
2022-12-15T13:15:39.155Z,7.75
2022-12-15T13:17:48.846Z,7.38
2022-12-15T13:19:59.205Z,7.80
2022-12-15T13:22:00.762Z,6.90
2022-12-15T13:24:02.259Z,7.75
2022-12-15T13:26:03.706Z,7.25
2022-12-15T13:28:29.589Z,7.30
2022-12-15T13:30:31.091Z,7.60
2022-12-15T13:32:35.733Z,8.07
2022-12-15T13:34:38.945Z,7.57
2022-12-15T13:36:40.474Z,7.78
2022-12-15T13:38:54.450Z,8.25
2022-12-15T13:40:55.901Z,8.43
2022-12-15T13:43:04.336Z,7.50
2022-12-15T13:45:16.155Z,9.15
2022-12-15T13:47:23.415Z,8.02
2022-12-15T13:49:53.134Z,7.20
2022-12-15T13:52:21.150Z,7.80
2022-12-15T13:54:33.484Z,7.68
2022-12-15T13:56:45.924Z,7.32
2022-12-15T13:58:56.277Z,7.57
2022-12-15T14:00:58.223Z,7.78
2022-12-15T14:03:11.011Z,8.10
2022-12-15T14:05:19.833Z,7.80
2022-12-15T14:09:36.179Z,7.68
2022-12-15T14:11:52.853Z,8.07
2022-12-15T14:13:59.495Z,8.07
2022-12-15T14:16:19.027Z,7.75
2022-12-15T14:18:26.739Z,8.15
2022-12-15T14:20:32.061Z,8.25
2022-12-15T14:22:33.514Z,7.55
2022-12-15T14:24:44.659Z,8.88
2022-12-15T14:26:46.966Z,8.55
2022-12-15T14:29:00.822Z,8.70
2022-12-15T14:31:11.514Z,8.20
2022-12-15T14:33:16.191Z,8.15
2022-12-15T14:35:24.736Z,8.27
2022-12-15T14:37:26.297Z,8.93
2022-12-15T14:39:37.918Z,8.63
2022-12-15T14:41:45.316Z,8.93
2022-12-15T14:44:31.247Z,8.75
2022-12-15T14:46:24.699Z,8.88
2022-12-15T14:48:41.087Z,8.50
2022-12-15T14:50:47.527Z,8.98
2022-12-15T14:52:57.867Z,9.35
2022-12-15T14:55:01.884Z,9.48
2022-12-15T14:57:14.665Z,9.70
2022-12-15T14:59:20.796Z,9.63
2022-12-15T15:01:29.919Z,10.55
2022-12-15T15:03:03.890Z,8.82
2022-12-15T15:03:39.098Z,11.38
2022-12-15T15:05:43.188Z,9.95
2022-12-15T15:07:45.706Z,9.90
2022-12-15T15:09:47.339Z,10.85
2022-12-15T15:11:52.482Z,9.63
2022-12-15T15:13:56.871Z,8.93
2022-12-15T15:16:05.682Z,10.00
2022-12-15T15:20:21.743Z,9.50
2022-12-15T15:23:22.015Z,9.90
2022-12-15T15:25:40.765Z,9.45
2022-12-15T15:27:42.428Z,9.40
2022-12-15T15:29:43.878Z,10.98
2022-12-15T15:31:45.477Z,12.10
2022-12-15T15:33:46.960Z,12.10
2022-12-15T15:35:59.995Z,12.55
2022-12-15T15:38:06.984Z,13.55
2022-12-15T15:40:16.011Z,12.98
2022-12-15T15:42:17.564Z,13.35
2022-12-15T15:44:19.066Z,12.35
2022-12-15T15:46:28.385Z,12.93
2022-12-15T15:48:36.520Z,11.40
2022-12-15T15:50:38.291Z,13.38
2022-12-15T15:52:40.033Z,11.27
2022-12-15T15:54:42.614Z,11.93
2022-12-15T15:56:44.139Z,11.25
2022-12-15T15:58:46.512Z,12.32
2022-12-15T16:00:47.995Z,11.93
2022-12-15T16:02:49.657Z,11.75
2022-12-15T16:04:51.294Z,11.65
2022-12-15T16:06:53.388Z,12.02
2022-12-15T16:08:55.053Z,12.68
2022-12-15T16:10:56.655Z,12.10
2022-12-15T16:13:01.285Z,12.73
2022-12-15T16:15:02.794Z,11.90
2022-12-15T16:17:04.679Z,10.75
2022-12-15T16:19:06.168Z,12.60
2022-12-15T16:21:13.884Z,11.98
2022-12-15T16:23:18.142Z,12.20
2022-12-15T16:25:33.463Z,12.40
2022-12-15T16:27:40.672Z,12.65
2022-12-15T16:29:42.510Z,12.82
2022-12-15T16:31:45.815Z,13.15
2022-12-15T16:33:47.470Z,13.35
2022-12-15T16:35:50.578Z,13.38
2022-12-15T16:37:52.348Z,12.00
2022-12-15T16:39:53.863Z,12.98
2022-12-15T16:41:56.282Z,13.23
2022-12-15T16:43:58.617Z,13.48
2022-12-15T16:46:01.227Z,12.85
2022-12-15T16:48:02.775Z,14.50
2022-12-15T16:50:04.604Z,13.80
2022-12-15T16:52:06.214Z,14.32
2022-12-15T16:54:15.740Z,14.68
2022-12-15T16:56:17.285Z,14.80
2022-12-15T16:58:19.056Z,15.68
2022-12-15T17:00:24.724Z,16.35
2022-12-15T17:02:29.736Z,16.08
2022-12-15T17:04:31.418Z,16.17
2022-12-15T17:06:33.102Z,15.82
2022-12-15T17:08:41.067Z,15.57
2022-12-15T17:10:43.150Z,16.73
2022-12-15T17:12:45.188Z,15.20
2022-12-15T17:14:46.666Z,15.68
2022-12-15T17:16:48.142Z,15.27
2022-12-15T17:18:49.947Z,15.45
2022-12-15T17:20:56.236Z,16.05
2022-12-15T17:23:04.549Z,15.13
2022-12-15T17:25:06.553Z,15.32
2022-12-15T17:27:11.559Z,15.55
2022-12-15T17:29:19.593Z,15.32
2022-12-15T17:31:23.648Z,15.32
2022-12-15T17:33:30.830Z,14.88
2022-12-15T17:35:32.546Z,15.80
2022-12-15T17:37:35.506Z,14.40
2022-12-15T17:39:37.411Z,16.13
2022-12-15T17:46:21.768Z,15.30
2022-12-15T17:48:24.137Z,15.45
2022-12-15T17:50:25.593Z,16.85
2022-12-15T17:52:34.348Z,15.25
2022-12-15T17:56:37.297Z,14.85
2022-12-15T17:58:39.007Z,15.65
2022-12-15T18:00:45.888Z,15.38
2022-12-15T18:02:50.650Z,16.20
2022-12-15T18:04:53.302Z,15.88
2022-12-15T18:07:01.247Z,15.38
2022-12-15T18:09:04.051Z,16.38
2022-12-15T18:11:05.943Z,16.30
2022-12-15T18:13:22.195Z,17.48
2022-12-15T18:15:29.522Z,14.38
2022-12-15T18:17:31.340Z,15.35
2022-12-15T18:19:35.040Z,15.88
2022-12-15T18:21:37.167Z,15.88
2022-12-15T18:23:38.629Z,15.25
2022-12-15T18:25:40.186Z,16.35
2022-12-15T18:27:41.633Z,16.23
2022-12-15T18:29:43.066Z,15.98
2022-12-15T18:31:47.015Z,16.35
2022-12-15T18:33:49.717Z,17.35
2022-12-15T18:35:52.004Z,16.27
2022-12-15T18:37:53.517Z,16.63
2022-12-15T18:39:58.304Z,15.38
2022-12-15T18:42:05.815Z,17.00
2022-12-15T18:44:15.254Z,15.15
2022-12-15T18:46:18.855Z,15.60
2022-12-15T18:48:28.702Z,15.27
2022-12-15T18:50:30.541Z,16.35
2022-12-15T18:52:34.896Z,16.05
2022-12-15T18:54:36.629Z,16.17
2022-12-15T18:56:38.072Z,17.05
2022-12-15T18:58:40.174Z,16.63
2022-12-15T19:00:41.655Z,16.00
2022-12-15T19:02:43.291Z,16.60
2022-12-15T19:04:44.834Z,16.42
2022-12-15T19:06:46.473Z,17.15
2022-12-15T19:08:50.016Z,17.20
2022-12-15T19:10:59.006Z,17.73
2022-12-15T19:13:01.128Z,17.73
2022-12-15T19:15:02.656Z,16.10
2022-12-15T19:17:22.531Z,16.58
2022-12-15T19:19:42.736Z,16.92
2022-12-15T19:22:02.527Z,16.33
2022-12-15T19:24:06.309Z,16.35
2022-12-15T19:26:09.170Z,17.02
2022-12-15T19:28:17.980Z,17.27
2022-12-15T19:32:22.921Z,15.98
2022-12-15T19:34:24.458Z,16.52
2022-12-15T19:36:26.315Z,16.58
2022-12-15T19:38:31.694Z,16.42
2022-12-15T19:40:35.478Z,16.98
2022-12-15T19:42:37.728Z,16.50
2022-12-15T19:44:39.312Z,17.30
2022-12-15T19:46:42.649Z,15.60
2022-12-15T19:48:44.334Z,17.23
2022-12-15T19:50:46.800Z,16.92
2022-12-15T19:52:51.675Z,17.67
2022-12-15T19:54:53.199Z,16.77
2022-12-15T19:56:54.686Z,16.92
2022-12-15T19:58:56.668Z,17.55
2022-12-15T20:01:01.639Z,17.63
2022-12-15T20:03:04.067Z,18.25
2022-12-15T20:05:05.795Z,16.83
2022-12-15T20:07:17.244Z,17.70
2022-12-15T20:09:19.356Z,17.13
2022-12-15T20:11:27.581Z,17.35
2022-12-15T20:13:29.826Z,18.35
2022-12-15T20:15:32.089Z,17.63
2022-12-15T20:17:33.774Z,17.17
2022-12-15T20:19:35.262Z,16.52
2022-12-15T20:21:39.039Z,17.10
2022-12-15T20:23:49.939Z,17.15
2022-12-15T20:25:52.079Z,16.13
2022-12-15T20:27:54.020Z,16.55
2022-12-15T20:29:58.525Z,17.55
2022-12-15T20:32:00.871Z,16.50
2022-12-15T20:34:02.379Z,16.65
2022-12-15T20:36:04.232Z,16.48
2022-12-15T20:38:31.469Z,16.63
2022-12-15T20:40:33.026Z,16.92
2022-12-15T20:42:34.529Z,15.63
2022-12-15T20:44:35.972Z,16.88
2022-12-15T20:46:37.953Z,16.70
2022-12-15T20:48:39.538Z,16.60
2022-12-15T20:50:49.552Z,16.83
2022-12-15T20:52:51.744Z,16.45
2022-12-15T20:54:54.488Z,15.77
2022-12-15T20:56:56.378Z,15.50
2022-12-15T20:58:58.846Z,15.52
2022-12-15T21:01:00.781Z,15.90
2022-12-15T21:03:02.714Z,15.35
2022-12-15T21:05:04.749Z,16.25
2022-12-15T21:07:08.475Z,15.73
2022-12-15T21:09:13.317Z,15.75
2022-12-15T21:11:24.466Z,16.30
2022-12-15T21:13:28.525Z,14.57
2022-12-15T21:15:30.080Z,15.32
2022-12-15T21:17:31.530Z,15.77
2022-12-15T21:19:32.979Z,15.23
2022-12-15T21:21:37.645Z,14.93
2022-12-15T21:23:42.855Z,15.15
2022-12-15T21:25:44.519Z,15.02
2022-12-15T21:27:46.042Z,17.70
2022-12-15T21:29:52.294Z,17.80
2022-12-15T21:31:54.579Z,18.65
2022-12-15T21:33:56.022Z,21.58
2022-12-15T21:35:58.442Z,17.52
2022-12-15T21:37:59.914Z,16.83
2022-12-15T21:40:01.649Z,15.07
2022-12-15T21:42:08.113Z,15.52
2022-12-15T21:44:13.805Z,15.57
2022-12-15T21:46:23.487Z,15.43
2022-12-15T21:48:46.275Z,14.98
2022-12-15T21:50:47.942Z,15.57
2022-12-15T21:52:49.598Z,14.38
2022-12-15T21:54:53.010Z,14.23
2022-12-15T21:56:56.315Z,15.13
2022-12-15T21:58:59.012Z,15.88
2022-12-15T22:01:00.639Z,14.80
2022-12-15T22:03:02.182Z,14.95
2022-12-15T22:05:03.934Z,15.15
2022-12-15T22:07:06.484Z,14.68
2022-12-15T22:09:10.781Z,15.63
2022-12-15T22:11:20.134Z,14.80
2022-12-15T22:13:23.069Z,14.13
2022-12-15T22:15:24.672Z,14.50
2022-12-15T22:17:26.636Z,15.77
2022-12-15T22:19:28.290Z,13.93
2022-12-15T22:21:29.770Z,14.80
2022-12-15T22:23:31.192Z,15.05
2022-12-15T22:25:32.670Z,13.93
2022-12-15T22:27:34.546Z,15.85
2022-12-15T22:29:35.997Z,14.88
2022-12-15T22:31:37.476Z,15.32
2022-12-15T22:33:38.959Z,15.55
2022-12-15T22:35:40.415Z,15.10
2022-12-15T22:37:42.613Z,14.50
2022-12-15T22:39:44.041Z,15.10
2022-12-15T22:41:48.283Z,15.02
2022-12-15T22:43:56.325Z,14.85
2022-12-15T22:45:57.947Z,15.32
2022-12-15T22:47:59.917Z,14.93
2022-12-15T22:50:02.145Z,14.23
2022-12-15T22:52:14.872Z,14.93
2022-12-15T22:54:23.839Z,15.60
2022-12-15T22:56:29.395Z,21.70
2022-12-15T22:58:43.387Z,21.92
2022-12-15T23:00:44.918Z,30.55
2022-12-15T23:02:47.225Z,17.13
2022-12-15T23:04:48.815Z,16.08
2022-12-15T23:06:50.525Z,16.58
2022-12-15T23:08:55.951Z,15.77
2022-12-15T23:11:18.129Z,15.40
2022-12-15T23:13:20.060Z,16.10
2022-12-15T23:15:41.361Z,16.23
2022-12-15T23:17:42.829Z,15.23
2022-12-15T23:19:45.348Z,16.00
2022-12-15T23:21:46.813Z,15.55
2022-12-15T23:23:48.768Z,16.80
2022-12-15T23:25:50.222Z,15.65
2022-12-15T23:27:51.897Z,16.52
2022-12-15T23:29:53.554Z,14.93
2022-12-15T23:31:56.964Z,15.48
2022-12-15T23:33:58.427Z,15.43
2022-12-15T23:36:02.108Z,14.73
2022-12-15T23:38:03.596Z,16.23
2022-12-15T23:40:05.992Z,16.15
2022-12-15T23:42:07.448Z,15.30
2022-12-15T23:44:09.462Z,15.82
2022-12-15T23:46:10.950Z,15.90
2022-12-15T23:48:13.941Z,15.13
2022-12-15T23:50:15.477Z,16.42
2022-12-15T23:52:18.320Z,16.05
2022-12-15T23:54:19.892Z,15.45
2022-12-15T23:56:24.014Z,15.02
2022-12-15T23:58:25.467Z,15.45
